createdAt,value
2022-11-28T00:01:09.873Z,101473.63
2022-11-28T00:03:36.259Z,101464.06
2022-11-28T00:06:07.408Z,101458.84
2022-11-28T00:08:35.218Z,101464.94
2022-11-28T00:11:06.621Z,101449.34
2022-11-28T00:13:34.282Z,101441.50
2022-11-28T00:16:02.645Z,101439.78
2022-11-28T00:18:29.486Z,101443.25
2022-11-28T00:21:01.060Z,101439.78
2022-11-28T00:23:28.093Z,101432.84
2022-11-28T00:25:59.271Z,101435.47
2022-11-28T00:28:25.722Z,101431.13
2022-11-28T00:30:52.225Z,101438.03
2022-11-28T00:33:18.659Z,101433.72
2022-11-28T00:35:45.015Z,101438.03
2022-11-28T00:38:11.417Z,101444.09
2022-11-28T00:40:37.909Z,101426.75
2022-11-28T00:43:04.382Z,101423.28
2022-11-28T00:45:31.037Z,101425.03
2022-11-28T00:47:57.496Z,101418.09
2022-11-28T00:50:25.146Z,101424.16
2022-11-28T00:52:51.669Z,101418.94
2022-11-28T00:55:18.101Z,101430.25
2022-11-28T00:57:44.527Z,101416.34
2022-11-28T01:00:11.381Z,101406.81
2022-11-28T01:02:37.879Z,101402.47
2022-11-28T01:05:04.598Z,101386.00
2022-11-28T01:07:33.128Z,101374.69
2022-11-28T01:09:59.562Z,101379.88
2022-11-28T01:12:25.936Z,101375.53
2022-11-28T01:14:53.503Z,101380.75
2022-11-28T01:17:19.839Z,101372.94
2022-11-28T01:19:46.305Z,101370.34
2022-11-28T01:22:12.801Z,101377.28
2022-11-28T01:24:39.434Z,101372.06
2022-11-28T01:27:06.218Z,101360.81
2022-11-28T01:29:32.664Z,101369.47
2022-11-28T01:32:00.051Z,101374.69
2022-11-28T01:34:26.828Z,101361.66
2022-11-28T01:36:53.166Z,101360.75
2022-11-28T01:39:20.904Z,101355.56
2022-11-28T01:41:47.666Z,101345.16
2022-11-28T01:44:13.965Z,101346.88
2022-11-28T01:46:40.642Z,101326.91
2022-11-28T01:49:17.572Z,101323.44
2022-11-28T01:52:00.906Z,101316.53
2022-11-28T01:54:29.529Z,101305.22
2022-11-28T01:57:02.902Z,101303.47
2022-11-28T01:59:35.243Z,101304.38
2022-11-28T02:02:06.309Z,101279.22
2022-11-28T02:04:34.354Z,101291.38
2022-11-28T02:07:00.934Z,101280.97
2022-11-28T02:09:27.429Z,101281.84
2022-11-28T02:12:21.623Z,101265.31
2022-11-28T02:14:53.813Z,101267.06
2022-11-28T02:17:43.930Z,101259.25
2022-11-28T02:20:28.372Z,101246.25
2022-11-28T02:22:59.538Z,101244.50
2022-11-28T02:26:07.513Z,101239.31
2022-11-28T02:29:19.087Z,101241.97
2022-11-28T02:32:15.211Z,101227.22
2022-11-28T02:35:16.729Z,101200.28
2022-11-28T02:38:01.723Z,101201.19
2022-11-28T02:40:37.690Z,101199.44
2022-11-28T02:43:08.124Z,101189.91
2022-11-28T02:45:43.552Z,101192.53
2022-11-28T02:48:24.224Z,101196.91
2022-11-28T02:51:01.210Z,101198.63
2022-11-28T02:53:31.970Z,101196.91
2022-11-28T02:55:59.691Z,101185.63
2022-11-28T02:58:26.511Z,101189.09
2022-11-28T03:00:53.262Z,101181.28
2022-11-28T03:03:41.128Z,101187.34
2022-11-28T03:06:22.921Z,101176.94
2022-11-28T03:09:18.177Z,101183.91
2022-11-28T03:12:15.500Z,101177.84
2022-11-28T03:14:54.849Z,101182.16
2022-11-28T03:17:25.056Z,101199.50
2022-11-28T03:20:20.844Z,101182.16
2022-11-28T03:23:02.862Z,101183.88
2022-11-28T03:25:47.623Z,101183.88
2022-11-28T03:28:23.072Z,101181.28
2022-11-28T03:30:54.855Z,101178.66
2022-11-28T03:33:25.271Z,101170.81
2022-11-28T03:35:58.150Z,101175.16
2022-11-28T03:38:34.283Z,101173.41
2022-11-28T03:41:06.987Z,101174.28
2022-11-28T03:43:40.182Z,101171.66
2022-11-28T03:46:11.568Z,101177.72
2022-11-28T03:48:54.505Z,101180.38
2022-11-28T03:51:29.073Z,101178.66
2022-11-28T03:54:08.076Z,101187.31
2022-11-28T03:56:45.743Z,101185.59
2022-11-28T03:59:25.618Z,101189.09
2022-11-28T04:01:54.891Z,101176.88
2022-11-28T04:04:47.524Z,101165.63
2022-11-28T04:07:23.461Z,101176.94
2022-11-28T04:10:00.443Z,101180.41
2022-11-28T04:12:39.954Z,101179.56
2022-11-28T04:15:11.948Z,101196.97
2022-11-28T04:17:49.666Z,101196.13
2022-11-28T04:20:27.855Z,101188.28
2022-11-28T04:23:00.923Z,101178.78
2022-11-28T04:25:29.766Z,101184.84
2022-11-28T04:28:01.437Z,101177.03
2022-11-28T04:30:28.015Z,101179.59
2022-11-28T04:32:59.383Z,101173.50
2022-11-28T04:35:32.457Z,101183.91
2022-11-28T04:38:01.542Z,101184.78
2022-11-28T04:40:31.770Z,101189.19
2022-11-28T04:43:02.965Z,101189.22
2022-11-28T04:45:34.313Z,101185.84
2022-11-28T04:48:01.753Z,101187.63
2022-11-28T04:50:41.099Z,101178.06
2022-11-28T04:53:19.451Z,101180.66
2022-11-28T04:55:57.938Z,101178.91
2022-11-28T04:58:43.418Z,101179.78
2022-11-28T05:01:15.574Z,101177.16
2022-11-28T05:03:42.980Z,101177.13
2022-11-28T05:06:09.696Z,101169.31
2022-11-28T05:08:36.151Z,101164.94
2022-11-28T05:11:02.657Z,101169.28
2022-11-28T05:13:29.044Z,101158.00
2022-11-28T05:15:55.436Z,101161.47
2022-11-28T05:18:21.913Z,101159.75
2022-11-28T05:20:48.525Z,101175.38
2022-11-28T05:23:14.893Z,101202.34
2022-11-28T05:25:41.324Z,101212.81
2022-11-28T05:28:08.644Z,101225.84
2022-11-28T05:30:35.080Z,101215.44
2022-11-28T05:33:02.051Z,101217.13
2022-11-28T05:35:28.478Z,101216.28
2022-11-28T05:37:54.927Z,101214.56
2022-11-28T05:40:21.263Z,101232.84
2022-11-28T05:42:47.676Z,101220.75
2022-11-28T05:45:14.132Z,101226.00
2022-11-28T05:47:40.534Z,101220.78
2022-11-28T05:50:08.126Z,101225.94
2022-11-28T05:52:34.534Z,101226.84
2022-11-28T05:55:01.547Z,101223.38
2022-11-28T05:57:29.893Z,101223.38
2022-11-28T05:59:56.711Z,101231.22
2022-11-28T06:02:23.412Z,101205.22
2022-11-28T06:04:49.912Z,101182.63
2022-11-28T06:07:16.424Z,101182.56
2022-11-28T06:09:43.166Z,101168.66
2022-11-28T06:12:09.666Z,101169.50
2022-11-28T06:14:36.142Z,101179.00
2022-11-28T06:17:02.564Z,101179.84
2022-11-28T06:19:29.106Z,101187.66
2022-11-28T06:21:56.381Z,101180.72
2022-11-28T06:24:22.962Z,101198.88
2022-11-28T06:26:49.311Z,101196.31
2022-11-28T06:29:15.843Z,101187.63
2022-11-28T06:31:42.261Z,101192.91
2022-11-28T06:34:11.704Z,101178.13
2022-11-28T06:36:38.133Z,101169.47
2022-11-28T06:39:05.186Z,101172.03
2022-11-28T06:41:31.621Z,101168.53
2022-11-28T06:43:58.005Z,101164.19
2022-11-28T06:46:24.449Z,101162.44
2022-11-28T06:48:52.195Z,101164.19
2022-11-28T06:51:19.700Z,101172.84
2022-11-28T06:53:46.055Z,101164.16
2022-11-28T06:56:16.563Z,101161.53
2022-11-28T06:58:44.031Z,101178.91
2022-11-28T07:01:14.070Z,101169.38
2022-11-28T07:03:41.092Z,101186.69
2022-11-28T07:06:08.803Z,101190.19
2022-11-28T07:08:35.511Z,101181.50
2022-11-28T07:11:15.848Z,101191.88
2022-11-28T07:13:43.639Z,101182.34
2022-11-28T07:16:27.497Z,101187.53
2022-11-28T07:18:56.871Z,101193.63
2022-11-28T07:21:24.017Z,101194.53
2022-11-28T07:23:51.093Z,101194.56
2022-11-28T07:26:19.191Z,101196.31
2022-11-28T07:28:46.428Z,101191.19
2022-11-28T07:31:18.737Z,101185.09
2022-11-28T07:33:47.695Z,101194.59
2022-11-28T07:36:20.450Z,101191.97
2022-11-28T07:38:48.672Z,101183.34
2022-11-28T07:41:15.961Z,101187.63
2022-11-28T07:43:44.120Z,101191.09
2022-11-28T07:46:13.830Z,101178.06
2022-11-28T07:48:40.719Z,101187.59
2022-11-28T07:51:12.030Z,101189.28
2022-11-28T07:53:39.611Z,101195.31
2022-11-28T07:56:08.914Z,101193.50
2022-11-28T07:58:36.470Z,101198.69
2022-11-28T08:01:23.896Z,101205.56
2022-11-28T08:03:52.267Z,101199.50
2022-11-28T08:06:21.978Z,101209.91
2022-11-28T08:08:49.449Z,101201.22
2022-11-28T08:11:17.242Z,101198.56
2022-11-28T08:13:44.572Z,101206.38
2022-11-28T08:16:16.940Z,101220.25
2022-11-28T08:18:44.307Z,101202.97
2022-11-28T08:21:12.313Z,101209.03
2022-11-28T08:23:39.832Z,101209.03
2022-11-28T08:26:08.885Z,101209.00
2022-11-28T08:28:35.974Z,101213.31
2022-11-28T08:31:33.222Z,101214.19
2022-11-28T08:34:01.971Z,101218.53
2022-11-28T08:36:29.517Z,101218.56
2022-11-28T08:39:16.557Z,101217.75
2022-11-28T08:41:43.165Z,101220.44
2022-11-28T08:44:09.515Z,101222.13
2022-11-28T08:46:36.610Z,101216.00
2022-11-28T08:49:04.590Z,101225.47
2022-11-28T08:51:31.437Z,101228.03
2022-11-28T08:53:59.720Z,101232.34
2022-11-28T08:56:26.830Z,101233.22
2022-11-28T08:58:53.386Z,101237.59
2022-11-28T09:01:22.567Z,101235.88
2022-11-28T09:03:50.005Z,101235.84
2022-11-28T09:06:17.883Z,101237.56
2022-11-28T09:08:45.082Z,101247.09
2022-11-28T09:11:14.169Z,101244.50
2022-11-28T09:13:40.859Z,101247.09
2022-11-28T09:16:07.639Z,101243.63
2022-11-28T09:18:34.378Z,101240.16
2022-11-28T09:21:02.053Z,101249.63
2022-11-28T09:23:29.211Z,101242.72
2022-11-28T09:25:56.170Z,101239.31
2022-11-28T09:28:23.763Z,101247.06
2022-11-28T09:30:50.407Z,101234.94
2022-11-28T09:33:16.796Z,101234.06
2022-11-28T09:35:43.306Z,101241.03
2022-11-28T09:38:09.670Z,101237.56
2022-11-28T09:40:42.391Z,101247.06
2022-11-28T09:43:16.947Z,101243.56
2022-11-28T09:45:45.422Z,101241.84
2022-11-28T09:48:30.204Z,101240.97
2022-11-28T09:51:06.178Z,101235.75
2022-11-28T09:53:44.897Z,101236.63
2022-11-28T09:56:15.570Z,101243.59
2022-11-28T09:58:57.817Z,101244.44
2022-11-28T10:01:26.864Z,101236.63
2022-11-28T10:04:02.917Z,101241.03
2022-11-28T10:07:04.552Z,101240.19
2022-11-28T10:09:46.988Z,101229.81
2022-11-28T10:12:32.285Z,101229.84
2022-11-28T10:15:14.135Z,101234.28
2022-11-28T10:17:44.277Z,101236.03
2022-11-28T10:20:32.980Z,101235.97
2022-11-28T10:23:05.299Z,101231.63
2022-11-28T10:25:51.195Z,101235.91
2022-11-28T10:28:29.631Z,101235.00
2022-11-28T10:31:12.301Z,101231.56
2022-11-28T10:33:50.159Z,101239.41
2022-11-28T10:36:28.143Z,101229.00
2022-11-28T10:38:54.568Z,101224.66
2022-11-28T10:41:28.719Z,101226.41
2022-11-28T10:44:28.869Z,101228.94
2022-11-28T10:47:05.754Z,101225.47
2022-11-28T10:49:52.594Z,101217.72
2022-11-28T10:52:57.002Z,101221.19
2022-11-28T10:55:41.513Z,101217.69
2022-11-28T10:58:15.343Z,101215.84
2022-11-28T11:00:45.380Z,101208.00
2022-11-28T11:03:15.365Z,101214.09
2022-11-28T11:05:42.403Z,101209.72
2022-11-28T11:08:08.748Z,101217.53
2022-11-28T11:10:51.885Z,101212.34
2022-11-28T11:13:24.861Z,101216.66
2022-11-28T11:15:59.208Z,101214.91
2022-11-28T11:18:28.645Z,101214.84
2022-11-28T11:21:14.589Z,101212.25
2022-11-28T11:23:41.567Z,101214.81
2022-11-28T11:26:33.248Z,101217.44
2022-11-28T11:29:01.494Z,101222.66
2022-11-28T11:31:31.569Z,101220.09
2022-11-28T11:34:15.655Z,101218.38
2022-11-28T11:36:42.456Z,101214.03
2022-11-28T11:39:12.257Z,101214.06
2022-11-28T11:41:41.335Z,101215.81
2022-11-28T11:44:13.618Z,101214.94
2022-11-28T11:47:08.739Z,101211.44
2022-11-28T11:49:44.331Z,101212.38
2022-11-28T11:52:22.678Z,101211.47
2022-11-28T11:54:57.228Z,101210.59
2022-11-28T11:57:49.695Z,101214.91
2022-11-28T12:00:21.146Z,101209.66
2022-11-28T12:03:03.108Z,101211.44
2022-11-28T12:06:12.723Z,101219.25
2022-11-28T12:08:43.446Z,101215.81
2022-11-28T12:11:31.419Z,101218.41
2022-11-28T12:14:04.690Z,101210.59
2022-11-28T12:16:50.471Z,101213.19
2022-11-28T12:19:34.389Z,101206.22
2022-11-28T12:22:25.757Z,101202.78
2022-11-28T12:25:04.921Z,101206.25
2022-11-28T12:27:53.464Z,101207.13
2022-11-28T12:30:43.375Z,101202.81
2022-11-28T12:33:20.727Z,101201.97
2022-11-28T12:36:14.804Z,101202.00
2022-11-28T12:39:18.374Z,101196.75
2022-11-28T12:42:18.978Z,101188.94
2022-11-28T12:45:07.111Z,101192.41
2022-11-28T12:48:01.966Z,101188.09
2022-11-28T12:50:35.537Z,101195.88
2022-11-28T12:53:16.768Z,101193.28
2022-11-28T12:55:52.426Z,101195.03
2022-11-28T12:58:40.660Z,101198.47
2022-11-28T13:01:53.257Z,101203.66
2022-11-28T13:04:56.987Z,101195.94
2022-11-28T13:07:51.950Z,101204.63
2022-11-28T13:10:28.873Z,101195.94
2022-11-28T13:13:06.680Z,101202.06
2022-11-28T13:15:48.080Z,101212.50
2022-11-28T13:18:28.848Z,101205.56
2022-11-28T13:21:09.747Z,101209.88
2022-11-28T13:23:50.988Z,101204.66
2022-11-28T13:26:42.602Z,101203.84
2022-11-28T13:29:12.037Z,101208.19
2022-11-28T13:31:49.815Z,101204.72
2022-11-28T13:34:18.218Z,101208.22
2022-11-28T13:40:19.783Z,101194.38
2022-11-28T13:43:06.556Z,101193.50
2022-11-28T13:45:52.711Z,101199.56
2022-11-28T13:49:06.145Z,101195.25
2022-11-28T13:51:30.602Z,101195.25
2022-11-28T13:54:16.900Z,101197.84
2022-11-28T13:56:49.007Z,101197.84
2022-11-28T13:59:25.947Z,101197.88
2022-11-28T14:01:58.439Z,101202.22
2022-11-28T14:04:27.787Z,101205.72
2022-11-28T14:07:02.221Z,101207.47
2022-11-28T14:09:47.682Z,101208.34
2022-11-28T14:12:26.769Z,101204.88
2022-11-28T14:15:01.492Z,101202.31
2022-11-28T14:17:38.029Z,101205.84
2022-11-28T14:20:24.359Z,101207.59
2022-11-28T14:23:20.192Z,101209.31
2022-11-28T14:25:50.035Z,101209.28
2022-11-28T14:28:26.340Z,101211.00
2022-11-28T14:31:31.032Z,101208.47
2022-11-28T14:34:00.698Z,101213.66
2022-11-28T14:36:33.940Z,101219.72
2022-11-28T14:39:07.372Z,101217.25
2022-11-28T14:42:03.627Z,101226.78
2022-11-28T14:44:50.677Z,101225.03
2022-11-28T14:47:42.933Z,101223.31
2022-11-28T14:50:09.682Z,101213.75
2022-11-28T14:52:41.700Z,101217.19
2022-11-28T14:55:12.950Z,101212.00
2022-11-28T14:57:58.510Z,101217.25
2022-11-28T15:00:31.818Z,101219.81
2022-11-28T15:03:37.817Z,101216.31
2022-11-28T15:06:20.806Z,101219.84
2022-11-28T15:09:00.097Z,101219.84
2022-11-28T15:11:37.429Z,101226.78
2022-11-28T15:14:22.757Z,101225.06
2022-11-28T15:16:53.069Z,101232.84
2022-11-28T15:19:30.627Z,101231.97
2022-11-28T15:21:57.507Z,101244.97
2022-11-28T15:24:33.097Z,101238.91
2022-11-28T15:27:08.810Z,101241.50
2022-11-28T15:29:36.733Z,101238.03
2022-11-28T15:32:04.919Z,101234.56
2022-11-28T15:34:34.201Z,101237.16
2022-11-28T15:37:05.595Z,101241.50
2022-11-28T15:39:35.770Z,101239.78
2022-11-28T15:42:05.083Z,101238.03
2022-11-28T15:44:32.318Z,101234.56
2022-11-28T15:47:01.433Z,101232.84
2022-11-28T15:49:32.788Z,101230.25
2022-11-28T15:52:02.756Z,101238.03
2022-11-28T15:54:36.801Z,101232.81
2022-11-28T15:57:05.275Z,101238.88
2022-11-28T15:59:32.952Z,101239.78
2022-11-28T16:02:15.083Z,101241.50
2022-11-28T16:04:44.100Z,101244.97
2022-11-28T16:07:14.876Z,101251.91
2022-11-28T16:09:53.613Z,101263.16
2022-11-28T16:12:20.167Z,101260.56
2022-11-28T16:14:46.964Z,101261.41
2022-11-28T16:17:19.983Z,101265.75
2022-11-28T16:19:46.630Z,101264.88
2022-11-28T16:22:19.436Z,101258.81
2022-11-28T16:24:48.966Z,101258.81
2022-11-28T16:27:38.873Z,101261.41
2022-11-28T16:30:24.056Z,101255.34
2022-11-28T16:32:52.259Z,101263.13
2022-11-28T16:35:31.994Z,101258.81
2022-11-28T16:38:25.102Z,101269.22
2022-11-28T16:40:58.673Z,101261.41
2022-11-28T16:43:36.326Z,101268.34
2022-11-28T16:46:06.655Z,101272.69
2022-11-28T16:48:38.332Z,101271.84
2022-11-28T16:51:10.797Z,101276.19
2022-11-28T16:53:45.946Z,101276.22
2022-11-28T16:56:24.449Z,101289.19
2022-11-28T16:59:12.279Z,101287.50
2022-11-28T17:01:39.486Z,101282.28
2022-11-28T17:04:06.376Z,101285.72
2022-11-28T17:06:37.302Z,101285.75
2022-11-28T17:09:09.782Z,101284.84
2022-11-28T17:11:39.780Z,101283.97
2022-11-28T17:14:13.037Z,101288.31
2022-11-28T17:16:41.472Z,101286.56
2022-11-28T17:19:07.939Z,101284.84
2022-11-28T17:21:40.572Z,101289.19
2022-11-28T17:24:15.933Z,101293.53
2022-11-28T17:26:42.386Z,101288.31
2022-11-28T17:29:13.252Z,101294.38
2022-11-28T17:31:42.103Z,101289.16
2022-11-28T17:34:19.008Z,101298.69
2022-11-28T17:36:45.696Z,101292.66
2022-11-28T17:39:17.126Z,101288.31
2022-11-28T17:41:44.413Z,101293.50
2022-11-28T17:44:17.646Z,101304.78
2022-11-28T17:46:44.111Z,101296.97
2022-11-28T17:49:10.703Z,101293.50
2022-11-28T17:51:37.699Z,101294.38
2022-11-28T17:54:04.444Z,101296.13
2022-11-28T17:56:32.382Z,101303.06
2022-11-28T17:59:00.232Z,101299.56
2022-11-28T18:01:29.204Z,101298.72
2022-11-28T18:03:58.920Z,101297.00
2022-11-28T18:06:25.474Z,101298.72
2022-11-28T18:08:53.261Z,101303.91
2022-11-28T18:11:20.477Z,101303.94
2022-11-28T18:13:47.823Z,101301.31
2022-11-28T18:16:17.242Z,101308.28
2022-11-28T18:18:44.238Z,101306.53
2022-11-28T18:21:11.254Z,101307.41
2022-11-28T18:23:39.717Z,101297.00
2022-11-28T18:26:13.102Z,101303.94
2022-11-28T18:28:41.201Z,101305.66
2022-11-28T18:31:29.101Z,101304.78
2022-11-28T18:34:01.623Z,101305.69
2022-11-28T18:36:32.289Z,101308.28
2022-11-28T18:39:01.524Z,101305.66
2022-11-28T18:41:28.991Z,101306.53
2022-11-28T18:43:57.043Z,101310.03
2022-11-28T18:46:25.148Z,101312.63
2022-11-28T18:48:52.142Z,101315.22
2022-11-28T18:51:27.611Z,101314.34
2022-11-28T18:53:55.922Z,101312.59
2022-11-28T18:56:23.437Z,101321.28
2022-11-28T18:58:51.785Z,101317.81
2022-11-28T19:01:28.204Z,101316.06
2022-11-28T19:03:58.011Z,101316.06
2022-11-28T19:06:24.818Z,101315.22
2022-11-28T19:09:00.201Z,101314.34
2022-11-28T19:11:29.284Z,101323.88
2022-11-28T19:13:56.369Z,101323.00
2022-11-28T19:16:35.147Z,101319.53
2022-11-28T19:19:03.661Z,101317.81
2022-11-28T19:21:32.779Z,101321.28
2022-11-28T19:24:00.621Z,101324.75
2022-11-28T19:26:30.471Z,101322.16
2022-11-28T19:28:59.848Z,101320.44
2022-11-28T19:31:29.329Z,101323.88
2022-11-28T19:34:02.135Z,101327.34
2022-11-28T19:36:33.063Z,101328.22
2022-11-28T19:38:59.861Z,101329.06
2022-11-28T19:41:28.069Z,101331.69
2022-11-28T19:43:55.298Z,101334.25
2022-11-28T19:46:21.974Z,101331.66
2022-11-28T19:48:49.500Z,101338.59
2022-11-28T19:51:15.986Z,101342.06
2022-11-28T19:53:43.326Z,101346.41
2022-11-28T19:56:16.931Z,101336.84
2022-11-28T19:58:44.357Z,101336.84
2022-11-28T20:01:15.303Z,101340.31
2022-11-28T20:03:42.637Z,101341.16
2022-11-28T20:06:10.967Z,101338.56
2022-11-28T20:08:38.821Z,101342.03
2022-11-28T20:11:13.043Z,101341.16
2022-11-28T20:13:40.694Z,101343.75
2022-11-28T20:16:08.815Z,101351.56
2022-11-28T20:18:40.948Z,101346.38
2022-11-28T20:21:19.320Z,101361.13
2022-11-28T20:23:51.465Z,101355.06
2022-11-28T20:26:20.148Z,101361.16
2022-11-28T20:28:47.580Z,101357.72
2022-11-28T20:31:31.686Z,101359.44
2022-11-28T20:33:58.495Z,101359.44
2022-11-28T20:36:26.515Z,101363.78
2022-11-28T20:38:54.346Z,101362.03
2022-11-28T20:41:22.797Z,101363.75
2022-11-28T20:43:49.185Z,101367.22
2022-11-28T20:46:21.901Z,101366.34
2022-11-28T20:48:49.567Z,101365.44
2022-11-28T20:51:19.134Z,101368.94
2022-11-28T20:53:45.765Z,101365.44
2022-11-28T20:56:18.283Z,101367.16
2022-11-28T20:58:45.717Z,101361.97
2022-11-28T21:01:17.897Z,101362.84
2022-11-28T21:03:44.559Z,101361.09
2022-11-28T21:06:12.183Z,101370.63
2022-11-28T21:08:38.846Z,101375.84
2022-11-28T21:11:11.210Z,101369.75
2022-11-28T21:13:38.035Z,101374.09
2022-11-28T21:16:06.944Z,101373.22
2022-11-28T21:18:34.211Z,101370.63
2022-11-28T21:21:10.493Z,101366.28
2022-11-28T21:23:38.118Z,101368.03
2022-11-28T21:26:15.836Z,101371.47
2022-11-28T21:28:44.763Z,101366.28
2022-11-28T21:31:14.071Z,101370.63
2022-11-28T21:33:40.753Z,101372.38
2022-11-28T21:36:08.061Z,101366.28
2022-11-28T21:38:35.438Z,101375.81
2022-11-28T21:41:02.178Z,101368.00
2022-11-28T21:43:29.566Z,101376.69
2022-11-28T21:46:07.137Z,101374.97
2022-11-28T21:48:35.550Z,101373.19
2022-11-28T21:51:03.587Z,101374.94
2022-11-28T21:53:31.266Z,101378.41
2022-11-28T21:56:03.242Z,101376.66
2022-11-28T21:58:30.656Z,101380.13
2022-11-28T22:01:02.734Z,101373.19
2022-11-28T22:03:30.779Z,101384.47
2022-11-28T22:06:21.876Z,101377.50
2022-11-28T22:08:48.949Z,101378.41
2022-11-28T22:11:15.948Z,101380.16
2022-11-28T22:13:45.761Z,101381.03
2022-11-28T22:16:16.589Z,101381.03
2022-11-28T22:18:44.408Z,101377.53
2022-11-28T22:21:43.383Z,101383.59
2022-11-28T22:23:58.333Z,101392.25
2022-11-28T22:26:24.859Z,101393.13
2022-11-28T22:28:53.944Z,101393.13
2022-11-28T22:31:22.796Z,101386.19
2022-11-28T22:33:50.259Z,101387.94
2022-11-28T22:36:19.058Z,101387.91
2022-11-28T22:38:47.509Z,101387.03
2022-11-28T22:41:20.791Z,101387.06
2022-11-28T22:43:54.301Z,101388.78
2022-11-28T22:46:20.886Z,101392.28
2022-11-28T22:48:47.811Z,101394.00
2022-11-28T22:51:22.785Z,101387.91
2022-11-28T22:53:56.431Z,101391.41
2022-11-28T22:56:26.866Z,101392.28
2022-11-28T22:58:53.728Z,101391.41
2022-11-28T23:01:24.042Z,101395.72
2022-11-28T23:03:51.761Z,101392.28
2022-11-28T23:06:20.964Z,101399.22
2022-11-28T23:08:53.857Z,101399.22
2022-11-28T23:11:23.606Z,101401.84
2022-11-28T23:13:51.166Z,101395.75
2022-11-28T23:16:19.619Z,101405.28
2022-11-28T23:18:49.816Z,101398.38
2022-11-28T23:21:17.355Z,101397.50
2022-11-28T23:23:45.822Z,101395.75
2022-11-28T23:26:18.194Z,101405.31
2022-11-28T23:28:44.999Z,101402.72
2022-11-28T23:31:17.823Z,101405.31
2022-11-28T23:33:45.835Z,101411.41
2022-11-28T23:36:16.701Z,101418.31
2022-11-28T23:38:44.477Z,101414.84
2022-11-28T23:41:11.878Z,101412.25
2022-11-28T23:43:38.843Z,101415.72
2022-11-28T23:46:06.337Z,101419.19
2022-11-28T23:48:33.529Z,101413.13
2022-11-28T23:50:59.959Z,101420.06
2022-11-28T23:53:26.605Z,101414.84
2022-11-28T23:55:53.049Z,101423.50
2022-11-28T23:58:19.584Z,101423.53
